Observations for GUERNSEY AIRPORT, United Kingdom (EGJB)

EGJB 220520Z 12009KT 9999 FEW003 18/17 Q1018
EGJB 220450Z 09011KT 9999 FEW003 18/17 Q1018
EGJB 220420Z 09011KT 9999 FEW003 17/17 Q1018
EGJB 220350Z 10010KT 9999 FEW036 17/16 Q1018
EGJB 220320Z 10011KT 9999 FEW036 17/16 Q1019
EGJB 220250Z 09013KT 9999 SCT036 17/16 Q1019
EGJB 211950Z 03005KT 9999 FEW028 16/16 Q1020
EGJB 211920Z 02002KT 9999 FEW003 SCT028 17/16 Q1020 
EGJB 211850Z 01003KT 9999 FEW003 BKN029 17/16 Q1021 
EGJB 211820Z 35004KT 310V010 9999 FEW004 BKN029 17/16 Q1021 
EGJB 211750Z 33002KT 9999 FEW004 BKN030 17/16 Q1021 
EGJB 211720Z 00000KT 9999 BKN030 18/17 Q1021
EGJB 211650Z 00000KT 9999 FEW004 BKN030 18/17 Q1021 
EGJB 211620Z VRB02KT 9999 FEW004 BKN030 18/17 Q1021 
EGJB 211550Z 24003KT 9999 4500SW VCFG FEW000 SCT001 BKN033 18/17 Q1022  
EGJB 211520Z 24005KT 9999 2500SW VCFG FEW000 SCT001 BKN035 18/17 Q1022  
EGJB 211450Z 22004KT 9999 3500SW VCFG FEW001 BKN035 19/17 Q1022 
EGJB 211420Z 21004KT 180V250 9999 5000SW VCFG FEW004 BKN036 19/17 Q1022 
EGJB 211350Z VRB03KT 9999 5000SW VCFG FEW000 SCT003 BKN036 18/18 Q1022  
EGJB 211320Z 23005KT 8000 2000S VCFG FEW000 SCT001 BKN002 18/17 Q1022   
EGJB 211250Z 21005KT 8000 2000SW VCFG FEW000 SCT001 BKN002 18/17 Q1022  
EGJB 211220Z 27005KT 8000 2500SW VCFG FEW000 BKN004 18/18 Q1022 
EGJB 211150Z 25004KT 220V280 4000 1200S VCFG FEW000 SCT001 BKN003 18/18 Q1022   
EGJB 211120Z 25006KT 2800 BR BKN001 BKN002 18/18 Q1023  
EGJB 211050Z 27006KT 230V300 2000 VCFG FEW000 BKN001 BKN002 18/17 Q1023 
EGJB 211020Z 27008KT 1300 R27/1400 VCFG SCT000 BKN001 17/17 Q1023   
EGJB 210950Z 27008KT 1400 R27/P1500 VCFG FEW000 BKN001 17/17 Q1023  
EGJB 210920Z 29009KT 1400 R27/P1500 VCFG FEW000 BKN001 17/17 Q1022  
EGJB 210850Z 28008KT 1400 R27/0900 VCFG SCT000 BKN001 17/17 Q1022   
EGJB 210820Z 28009KT 0500 R27/0450 FG BKN000 17/17 Q1022
EGJB 210750Z 29009KT 0300 R27/0400 FG OVC000 17/17 Q1022
EGJB 210720Z 28009KT 0300 R27/0300 FG OVC000 17/17 Q1022
EGJB 210650Z 27009KT 0400 R27/0300 FG OVC000 16/16 Q1022
EGJB 210620Z 27009KT 0300 R27/0350 FG BKN000 16/16 Q1022
EGJB 210550Z 26010KT 0250 R27/0450 FG BKN000 16/16 Q1022
EGJB 210520Z 26010KT 0400 R27/1300 BCFG BKN000 BKN001 16/16 Q1022   
EGJB 210450Z 27010KT 2000 R27/1400 VCFG BR FEW000 BKN001 16/16 Q1022